createdAt,value
2024-04-24T00:08:04.367Z,58.63
2024-04-24T00:09:04.402Z,58.73
2024-04-24T00:10:04.406Z,58.60
2024-04-24T00:11:04.366Z,58.09
2024-04-24T00:12:04.287Z,58.32
2024-04-24T00:13:04.664Z,58.53
2024-04-24T00:14:04.256Z,58.84
2024-04-24T00:15:04.345Z,58.84
2024-04-24T00:16:04.212Z,58.94
2024-04-24T00:17:04.236Z,58.81
2024-04-24T00:18:04.260Z,58.60
2024-04-24T00:19:04.635Z,58.19
2024-04-24T00:20:04.268Z,58.19
2024-04-24T00:21:04.195Z,58.06
2024-04-24T00:22:04.180Z,57.96
2024-04-24T00:23:04.223Z,57.75
2024-04-24T00:24:04.114Z,57.75
2024-04-24T00:25:04.554Z,57.86
2024-04-24T00:26:04.272Z,57.86
2024-04-24T00:27:04.124Z,57.86
2024-04-24T00:28:04.041Z,57.96
2024-04-24T00:29:04.092Z,58.16
2024-04-24T00:30:04.032Z,57.65
2024-04-24T00:31:04.514Z,57.65
2024-04-24T00:32:04.015Z,57.65
2024-04-24T00:33:04.052Z,57.86
2024-04-24T00:34:04.002Z,57.65
2024-04-24T00:35:04.022Z,57.54
2024-04-24T00:36:03.981Z,57.75
2024-04-24T00:37:04.341Z,57.54
2024-04-24T00:38:03.984Z,57.78
2024-04-24T00:39:04.009Z,58.19
2024-04-24T00:40:03.875Z,57.98
2024-04-24T00:41:03.992Z,57.88
2024-04-24T00:42:04.294Z,58.29
2024-04-24T00:43:03.929Z,58.09
2024-04-24T00:44:03.966Z,58.50
2024-04-24T00:45:03.845Z,58.73
2024-04-24T00:46:03.823Z,58.70
2024-04-24T00:47:04.063Z,58.91
2024-04-24T00:48:04.326Z,58.50
2024-04-24T00:49:03.798Z,58.42
2024-04-24T00:50:03.826Z,58.22
2024-04-24T00:51:03.730Z,58.32
2024-04-24T00:52:03.754Z,58.53
2024-04-24T00:53:04.218Z,58.42
2024-04-24T00:54:03.792Z,58.32
2024-04-24T00:55:03.698Z,58.63
2024-04-24T00:56:03.739Z,58.53
2024-04-24T00:57:03.673Z,58.42
2024-04-24T00:58:03.683Z,58.22
2024-04-24T00:59:04.187Z,58.22
2024-04-24T01:00:03.683Z,58.22
2024-04-24T01:01:03.688Z,58.53
2024-04-24T01:02:03.665Z,58.84
2024-04-24T01:03:03.648Z,58.65
2024-04-24T01:04:03.735Z,58.65
2024-04-24T01:05:04.087Z,58.76
2024-04-24T01:06:03.590Z,59.07
2024-04-24T01:07:03.550Z,59.14
2024-04-24T01:08:03.591Z,59.35
2024-04-24T01:09:03.588Z,58.73
2024-04-24T01:10:03.563Z,58.63
2024-04-24T01:11:03.984Z,58.53
2024-04-24T01:12:03.590Z,58.63
2024-04-24T01:13:03.474Z,58.22
2024-04-24T01:14:03.536Z,58.32
2024-04-24T01:15:03.457Z,58.40
2024-04-24T01:16:03.510Z,58.40
2024-04-24T01:17:04.027Z,57.88
2024-04-24T01:18:03.577Z,57.68
2024-04-24T01:19:03.410Z,57.88
2024-04-24T01:20:03.402Z,57.57
2024-04-24T01:21:03.402Z,57.57
2024-04-24T01:22:03.754Z,57.81
2024-04-24T01:23:03.352Z,58.11
2024-04-24T01:24:03.352Z,58.32
2024-04-24T01:25:03.314Z,58.42
2024-04-24T01:26:03.389Z,58.73
2024-04-24T01:27:03.275Z,58.73
2024-04-24T01:28:03.700Z,58.94
2024-04-24T01:29:03.320Z,58.11
2024-04-24T01:30:03.237Z,58.22
2024-04-24T01:31:03.332Z,58.22
2024-04-24T01:32:03.440Z,58.42
2024-04-24T01:33:03.708Z,57.68
2024-04-24T01:34:03.172Z,57.26
2024-04-24T01:35:03.270Z,57.47
2024-04-24T01:36:03.194Z,57.06
2024-04-24T01:37:03.254Z,57.16
2024-04-24T01:38:03.595Z,56.95
2024-04-24T01:39:03.133Z,56.95
2024-04-24T01:40:03.127Z,56.85
2024-04-24T01:41:03.175Z,56.95
2024-04-24T01:42:03.107Z,57.26
2024-04-24T01:43:03.111Z,57.16
2024-04-24T01:44:03.630Z,56.72
2024-04-24T01:45:03.065Z,56.93
2024-04-24T01:46:03.088Z,56.21
2024-04-24T01:47:03.093Z,56.41
2024-04-24T01:48:03.111Z,56.23
2024-04-24T01:49:03.449Z,56.75
2024-04-24T01:50:03.033Z,56.44
2024-04-24T01:51:02.970Z,56.44
2024-04-24T01:52:03.025Z,56.44
2024-04-24T01:53:02.972Z,56.65
2024-04-24T01:54:03.356Z,56.54
2024-04-24T01:55:02.946Z,56.44
2024-04-24T01:56:03.002Z,56.13
2024-04-24T01:57:02.912Z,56.34
2024-04-24T01:58:02.908Z,56.44
2024-04-24T01:59:03.450Z,56.44
2024-04-24T02:00:02.941Z,56.54
2024-04-24T02:01:02.965Z,56.65
2024-04-24T02:02:02.844Z,56.44
2024-04-24T02:03:02.875Z,56.95
2024-04-24T02:04:03.945Z,56.65
2024-04-24T02:05:02.947Z,56.54
2024-04-24T02:06:02.830Z,56.44
2024-04-24T02:07:02.785Z,57.16
2024-04-24T02:08:02.771Z,56.65
2024-04-24T02:09:02.786Z,56.54
2024-04-24T02:10:03.224Z,56.65
2024-04-24T02:11:02.766Z,56.85
2024-04-24T02:12:10.300Z,56.95
2024-04-24T02:13:04.193Z,56.85
2024-04-24T02:14:02.698Z,56.85
2024-04-24T02:15:02.735Z,56.85
2024-04-24T02:16:03.092Z,56.85
2024-04-24T02:17:02.663Z,57.06
2024-04-24T02:18:02.704Z,56.95
2024-04-24T02:19:02.645Z,57.37
2024-04-24T02:20:02.650Z,57.57
2024-04-24T02:21:02.598Z,57.37
2024-04-24T02:22:02.986Z,57.37
2024-04-24T02:23:02.649Z,57.37
2024-04-24T02:24:02.554Z,57.68
2024-04-24T02:25:02.535Z,57.57
2024-04-24T02:26:02.568Z,57.47
2024-04-24T02:27:02.615Z,57.57
2024-04-24T02:28:02.988Z,57.68
2024-04-24T02:29:02.514Z,57.68
2024-04-24T02:30:02.511Z,57.88
2024-04-24T02:31:02.460Z,57.37
2024-04-24T02:32:02.624Z,57.70
2024-04-24T02:33:03.052Z,57.70
2024-04-24T02:34:02.410Z,57.50
2024-04-24T02:35:02.462Z,57.70
2024-04-24T02:36:02.388Z,57.81
2024-04-24T02:37:02.448Z,57.70
2024-04-24T02:38:02.957Z,57.70
2024-04-24T02:39:02.328Z,57.93
2024-04-24T02:40:02.359Z,57.93
2024-04-24T02:41:02.375Z,58.14
2024-04-24T02:42:02.326Z,57.93
2024-04-24T02:43:02.757Z,57.93
2024-04-24T02:44:02.325Z,58.04
2024-04-24T02:45:02.275Z,58.35
2024-04-24T02:46:02.270Z,57.93
2024-04-24T02:47:02.289Z,58.14
2024-04-24T02:48:02.817Z,58.25
2024-04-24T02:49:02.226Z,58.45
2024-04-24T02:50:02.250Z,58.25
2024-04-24T02:51:02.181Z,58.55
2024-04-24T02:52:02.213Z,58.76
2024-04-24T02:53:02.243Z,58.45
2024-04-24T02:54:02.552Z,58.55
2024-04-24T02:55:02.200Z,58.55
2024-04-24T02:56:02.143Z,58.35
2024-04-24T02:57:02.126Z,58.35
2024-04-24T02:58:02.168Z,58.65
2024-04-24T02:59:02.515Z,58.25
2024-04-24T03:00:02.066Z,58.25
2024-04-24T03:01:02.147Z,58.35
2024-04-24T03:02:02.139Z,58.55
2024-04-24T03:03:02.159Z,58.55
2024-04-24T03:04:02.131Z,58.25
2024-04-24T03:05:02.563Z,58.32
2024-04-24T03:06:02.028Z,57.91
2024-04-24T03:07:01.997Z,58.01
2024-04-24T03:08:01.990Z,57.70
2024-04-24T03:09:01.957Z,57.91
2024-04-24T03:10:01.983Z,58.14
2024-04-24T03:11:02.475Z,58.25
2024-04-24T03:12:02.032Z,58.45
2024-04-24T03:13:01.922Z,58.14
2024-04-24T03:14:02.054Z,58.04
2024-04-24T03:15:01.896Z,57.83
2024-04-24T03:16:01.899Z,57.62
2024-04-24T03:17:02.396Z,57.42
2024-04-24T03:18:02.023Z,57.62
2024-04-24T03:19:01.841Z,57.83
2024-04-24T03:20:01.869Z,57.93
2024-04-24T03:21:01.838Z,58.04
2024-04-24T03:22:01.816Z,57.52
2024-04-24T03:23:02.289Z,57.32
2024-04-24T03:24:01.826Z,57.32
2024-04-24T03:25:01.810Z,57.14
2024-04-24T03:26:01.787Z,57.55
2024-04-24T03:27:01.714Z,57.45
2024-04-24T03:28:01.747Z,58.06
2024-04-24T03:29:02.247Z,57.65
2024-04-24T03:30:01.738Z,57.86
2024-04-24T03:31:01.674Z,57.89
2024-04-24T03:32:01.775Z,58.09
2024-04-24T03:33:02.035Z,58.40
2024-04-24T03:34:01.660Z,58.61
2024-04-24T03:35:02.120Z,58.61
2024-04-24T03:36:01.623Z,58.61
2024-04-24T03:37:01.652Z,58.50
2024-04-24T03:38:01.703Z,58.37
2024-04-24T03:39:01.588Z,58.37
2024-04-24T03:40:01.570Z,57.96
2024-04-24T03:41:02.027Z,57.96
2024-04-24T03:42:01.539Z,58.27
2024-04-24T03:43:01.550Z,58.30
2024-04-24T03:44:01.589Z,58.40
2024-04-24T03:45:01.517Z,58.50
2024-04-24T03:46:01.496Z,58.81
2024-04-24T03:47:01.944Z,59.23
2024-04-24T03:48:01.618Z,59.12
2024-04-24T03:49:02.160Z,59.05
2024-04-24T03:50:01.471Z,59.36
2024-04-24T03:51:01.397Z,59.15
2024-04-24T03:52:01.428Z,59.23
2024-04-24T03:53:01.863Z,59.25
2024-04-24T03:54:01.405Z,59.95
2024-04-24T03:55:01.376Z,59.33
2024-04-24T03:56:01.396Z,59.77
2024-04-24T03:57:01.342Z,59.56
2024-04-24T03:58:01.306Z,59.88
2024-04-24T03:59:01.711Z,60.08
2024-04-24T04:00:01.362Z,60.31
2024-04-24T04:01:01.313Z,60.73
2024-04-24T04:02:01.277Z,61.66
2024-04-24T04:03:01.374Z,61.35
2024-04-24T04:04:03.465Z,61.24
2024-04-24T04:05:01.317Z,61.35
2024-04-24T04:06:01.391Z,61.52
2024-04-24T04:07:01.184Z,61.22
2024-04-24T04:08:01.259Z,61.11
2024-04-24T04:09:01.593Z,60.91
2024-04-24T04:10:01.170Z,60.47
2024-04-24T04:11:01.193Z,60.05
2024-04-24T04:12:01.309Z,60.28
2024-04-24T04:13:01.176Z,60.18
2024-04-24T04:14:01.125Z,60.39
2024-04-24T04:15:01.555Z,60.18
2024-04-24T04:16:01.155Z,60.18
2024-04-24T04:17:01.136Z,60.18
2024-04-24T04:18:01.235Z,60.49
2024-04-24T04:19:01.055Z,61.01
2024-04-24T04:20:01.455Z,60.83
2024-04-24T04:21:01.016Z,61.66
2024-04-24T04:22:01.101Z,61.73
2024-04-24T04:23:01.078Z,60.91
2024-04-24T04:24:01.016Z,60.70
2024-04-24T04:25:00.967Z,60.49
2024-04-24T04:26:01.409Z,59.84
2024-04-24T04:27:00.975Z,59.74
2024-04-24T04:28:00.954Z,59.53
2024-04-24T04:29:00.947Z,59.64
2024-04-24T04:30:00.893Z,59.74
2024-04-24T04:31:01.397Z,59.98
2024-04-24T04:32:00.974Z,59.98
2024-04-24T04:33:00.935Z,60.18
2024-04-24T04:34:00.957Z,60.83
2024-04-24T04:35:00.876Z,61.04
2024-04-24T04:36:00.872Z,60.80
2024-04-24T04:37:01.243Z,60.80
2024-04-24T04:38:00.842Z,60.39
2024-04-24T04:39:00.891Z,60.28
2024-04-24T04:40:00.784Z,60.18
2024-04-24T04:41:00.814Z,60.60
2024-04-24T04:42:02.203Z,60.39
2024-04-24T04:43:00.724Z,60.57
2024-04-24T04:44:00.840Z,60.47
2024-04-24T04:45:00.726Z,60.26
2024-04-24T04:46:00.670Z,60.26
2024-04-24T04:47:01.145Z,60.26
2024-04-24T04:48:01.134Z,59.82
2024-04-24T04:49:00.768Z,59.30
2024-04-24T04:50:00.809Z,59.09
2024-04-24T04:51:00.620Z,58.99
2024-04-24T04:52:00.627Z,59.09
2024-04-24T04:53:01.223Z,58.58
2024-04-24T04:54:00.618Z,58.58
2024-04-24T04:55:00.673Z,58.55
2024-04-24T04:56:00.577Z,58.14
2024-04-24T04:57:00.587Z,57.93
2024-04-24T04:58:00.557Z,57.73
2024-04-24T04:59:00.986Z,58.04
2024-04-24T05:00:00.606Z,58.45
2024-04-24T05:01:00.588Z,58.04
2024-04-24T05:02:00.522Z,58.14
2024-04-24T05:03:00.568Z,57.45
2024-04-24T05:04:00.952Z,57.86
2024-04-24T05:05:00.706Z,58.17
2024-04-24T05:06:00.429Z,57.96
2024-04-24T05:07:00.434Z,58.17
2024-04-24T05:08:00.563Z,57.96
2024-04-24T05:09:00.421Z,57.96
2024-04-24T05:10:00.770Z,57.76
2024-04-24T05:11:00.488Z,58.69
2024-04-24T05:12:00.540Z,58.48
2024-04-24T05:13:00.324Z,58.27
2024-04-24T05:14:00.375Z,58.14
2024-04-24T05:15:00.355Z,58.45
2024-04-24T05:16:00.782Z,58.25
2024-04-24T05:17:00.529Z,58.25
2024-04-24T05:18:00.553Z,58.04
2024-04-24T05:19:00.312Z,58.35
2024-04-24T05:20:00.465Z,58.11
2024-04-24T05:21:00.637Z,57.70
2024-04-24T05:22:00.232Z,57.39
2024-04-24T05:23:00.255Z,57.39
2024-04-24T05:24:00.269Z,57.70
2024-04-24T05:25:00.259Z,57.70
2024-04-24T05:26:01.260Z,57.81
2024-04-24T05:27:00.606Z,57.81
2024-04-24T05:28:00.241Z,57.50
2024-04-24T05:29:00.159Z,57.47
2024-04-24T05:30:00.171Z,57.57
2024-04-24T05:31:00.120Z,57.57
2024-04-24T05:32:00.544Z,57.47
2024-04-24T05:33:00.249Z,57.68
2024-04-24T05:34:00.184Z,57.37
2024-04-24T05:35:00.191Z,57.88
2024-04-24T05:36:00.050Z,57.68
2024-04-24T05:37:00.017Z,57.44
2024-04-24T05:38:00.445Z,57.03
2024-04-24T05:39:00.012Z,56.72
2024-04-24T05:40:00.023Z,56.72
2024-04-24T05:41:00.083Z,56.93
2024-04-24T05:42:00.894Z,57.14
2024-04-24T05:42:59.938Z,57.24
2024-04-24T05:44:00.453Z,57.03
2024-04-24T05:44:59.986Z,57.03
2024-04-24T05:45:59.932Z,57.44
2024-04-24T05:46:59.905Z,57.34
2024-04-24T05:47:59.925Z,57.54
2024-04-24T05:48:59.911Z,57.34
2024-04-24T05:50:00.379Z,57.34
2024-04-24T05:50:59.904Z,57.65
2024-04-24T05:52:01.217Z,57.54
2024-04-24T05:52:59.834Z,57.31
2024-04-24T05:53:59.797Z,57.62
2024-04-24T05:55:00.324Z,57.62
2024-04-24T05:55:59.887Z,57.31
2024-04-24T05:56:59.802Z,57.10
2024-04-24T05:57:59.742Z,57.31
2024-04-24T05:58:59.743Z,57.42
2024-04-24T05:59:59.728Z,57.31
2024-04-24T06:01:01.225Z,57.31
2024-04-24T06:01:59.737Z,57.42
2024-04-24T06:02:59.796Z,57.52
2024-04-24T06:04:00.615Z,57.42
2024-04-24T06:05:00.667Z,57.42
2024-04-24T06:05:59.737Z,57.31
2024-04-24T06:07:00.063Z,57.31
2024-04-24T06:07:59.597Z,57.42
2024-04-24T06:08:59.599Z,57.52
2024-04-24T06:09:59.590Z,57.52
2024-04-24T06:10:59.677Z,57.29
2024-04-24T06:11:59.656Z,57.39
2024-04-24T06:12:59.947Z,57.08
2024-04-24T06:14:00.597Z,56.87
2024-04-24T06:14:59.536Z,56.77
2024-04-24T06:15:59.543Z,56.95
2024-04-24T06:16:59.552Z,56.54
2024-04-24T06:18:00.048Z,56.54
2024-04-24T06:18:59.565Z,56.54
2024-04-24T06:19:59.473Z,56.64
2024-04-24T06:20:59.457Z,56.34
2024-04-24T06:21:59.486Z,56.64
2024-04-24T06:23:00.193Z,56.54
2024-04-24T06:23:59.451Z,56.23
2024-04-24T06:24:59.385Z,56.23
2024-04-24T06:25:59.387Z,56.23
2024-04-24T06:26:59.391Z,56.44
2024-04-24T06:28:00.314Z,56.64
2024-04-24T06:28:59.781Z,56.51
2024-04-24T06:30:00.291Z,56.41
2024-04-24T06:30:59.339Z,56.00
2024-04-24T06:31:59.370Z,55.79
2024-04-24T06:32:59.401Z,55.66
2024-04-24T06:33:59.734Z,55.77
2024-04-24T06:34:59.279Z,55.57
2024-04-24T06:35:59.270Z,55.46
2024-04-24T06:37:00.204Z,55.26
2024-04-24T06:37:59.293Z,55.33
2024-04-24T06:38:59.258Z,55.54
2024-04-24T06:39:59.225Z,54.92
2024-04-24T06:40:59.209Z,55.02
2024-04-24T06:41:59.175Z,54.72
2024-04-24T06:42:59.180Z,55.00
2024-04-24T06:44:00.193Z,54.79
2024-04-24T06:44:59.546Z,54.38
2024-04-24T06:45:59.111Z,54.49
2024-04-24T06:46:59.191Z,54.49
2024-04-24T06:47:59.173Z,54.49
2024-04-24T06:48:59.115Z,53.87
2024-04-24T06:49:59.114Z,53.77
2024-04-24T06:50:59.498Z,53.74
2024-04-24T06:51:59.103Z,53.64
2024-04-24T06:52:59.063Z,53.54
2024-04-24T06:53:59.008Z,53.74
2024-04-24T06:54:59.011Z,53.74
2024-04-24T06:55:59.442Z,53.92
2024-04-24T06:56:58.990Z,53.51
2024-04-24T06:58:00.829Z,53.41
2024-04-24T06:58:58.990Z,52.90
2024-04-24T06:59:58.926Z,52.77
2024-04-24T07:00:59.373Z,53.18
2024-04-24T07:01:59.077Z,52.56
2024-04-24T07:02:58.898Z,51.85
2024-04-24T07:03:58.924Z,52.28
2024-04-24T07:04:58.873Z,53.00
2024-04-24T07:05:59.339Z,52.59
2024-04-24T07:06:58.916Z,52.67
2024-04-24T07:07:58.923Z,53.39
2024-04-24T07:08:58.879Z,53.28
2024-04-24T07:09:58.795Z,52.64
2024-04-24T07:10:59.243Z,51.21
2024-04-24T07:11:58.896Z,51.44
2024-04-24T07:12:58.824Z,51.75
2024-04-24T07:13:58.852Z,51.85
2024-04-24T07:14:58.739Z,52.08
2024-04-24T07:15:59.114Z,52.05
2024-04-24T07:16:58.783Z,51.87
2024-04-24T07:17:58.829Z,52.49
2024-04-24T07:18:58.867Z,52.67
2024-04-24T07:19:58.692Z,51.44
2024-04-24T07:20:58.646Z,51.54
2024-04-24T07:21:59.097Z,50.62
2024-04-24T07:22:58.651Z,50.93
2024-04-24T07:23:58.725Z,51.23
2024-04-24T07:24:58.593Z,50.52
2024-04-24T07:25:58.658Z,50.42
2024-04-24T07:26:58.616Z,50.62
2024-04-24T07:27:59.019Z,50.52
2024-04-24T07:28:58.611Z,51.03
2024-04-24T07:29:58.658Z,51.85
2024-04-24T07:30:58.542Z,50.42
2024-04-24T07:31:58.553Z,50.42
2024-04-24T07:32:59.905Z,50.29
2024-04-24T07:33:58.584Z,49.49
2024-04-24T07:34:58.558Z,49.39
2024-04-24T07:35:58.490Z,49.62
2024-04-24T07:36:58.481Z,49.51
2024-04-24T07:37:58.857Z,49.51
2024-04-24T07:38:58.452Z,49.23
2024-04-24T07:39:58.559Z,49.46
2024-04-24T07:40:58.388Z,49.97
2024-04-24T07:41:58.380Z,50.38
2024-04-24T07:42:58.371Z,50.38
2024-04-24T07:43:58.818Z,50.79
2024-04-24T07:44:58.414Z,50.99
2024-04-24T07:45:58.344Z,51.18
2024-04-24T07:47:01.568Z,50.46
2024-04-24T07:47:59.926Z,49.31
2024-04-24T07:48:58.786Z,49.31
2024-04-24T07:49:58.332Z,48.88
2024-04-24T07:50:58.311Z,48.57
2024-04-24T07:51:58.284Z,48.55
2024-04-24T07:52:58.253Z,47.93
2024-04-24T07:53:58.225Z,47.30
2024-04-24T07:54:58.254Z,47.09
2024-04-24T07:55:58.210Z,47.07
2024-04-24T07:56:58.213Z,46.97
2024-04-24T07:57:58.173Z,46.97
2024-04-24T07:58:58.193Z,46.76
2024-04-24T07:59:58.596Z,47.27
2024-04-24T08:00:58.129Z,46.76
2024-04-24T08:01:58.211Z,46.99
2024-04-24T08:02:58.112Z,47.50
2024-04-24T08:03:58.119Z,47.30
2024-04-24T08:04:58.186Z,48.01
2024-04-24T08:05:58.475Z,46.97
2024-04-24T08:06:58.117Z,47.25
2024-04-24T08:07:58.119Z,46.53
2024-04-24T08:08:58.029Z,46.03
2024-04-24T08:09:58.104Z,46.53
2024-04-24T08:10:58.423Z,46.53
2024-04-24T08:11:58.072Z,46.64
2024-04-24T08:12:57.993Z,46.12
2024-04-24T08:13:58.008Z,46.03
2024-04-24T08:14:57.993Z,45.64
2024-04-24T08:15:57.998Z,45.86
2024-04-24T08:16:58.408Z,45.78
2024-04-24T08:17:58.102Z,46.39
2024-04-24T08:18:57.889Z,46.50
2024-04-24T08:19:57.968Z,47.13
2024-04-24T08:20:57.900Z,47.24
2024-04-24T08:21:58.280Z,47.22
2024-04-24T08:22:57.900Z,47.22
2024-04-24T08:23:57.884Z,47.01
2024-04-24T08:24:57.866Z,46.68
2024-04-24T08:25:57.851Z,46.56
2024-04-24T08:26:57.823Z,46.04
2024-04-24T08:27:58.217Z,45.76
2024-04-24T08:28:57.809Z,46.37
2024-04-24T08:29:59.786Z,46.89
2024-04-24T08:30:57.771Z,46.58
2024-04-24T08:31:57.747Z,46.99
2024-04-24T08:32:57.822Z,46.99
2024-04-24T08:33:58.185Z,47.17
2024-04-24T08:34:57.784Z,46.94
2024-04-24T08:35:57.742Z,45.90
2024-04-24T08:36:57.683Z,45.98
2024-04-24T08:37:57.667Z,44.53
2024-04-24T08:38:57.656Z,43.79
2024-04-24T08:39:58.088Z,43.59
2024-04-24T08:40:57.747Z,43.16
2024-04-24T08:42:00.157Z,43.16
2024-04-24T08:42:57.646Z,43.06
2024-04-24T08:43:57.599Z,42.55
2024-04-24T08:44:57.672Z,42.55
2024-04-24T08:45:57.989Z,43.18
2024-04-24T08:46:57.641Z,43.69
2024-04-24T08:47:57.616Z,44.41
2024-04-24T08:48:57.681Z,44.10
2024-04-24T08:49:57.506Z,44.31
2024-04-24T08:50:58.446Z,44.31
2024-04-24T08:51:57.955Z,44.31
2024-04-24T08:52:57.488Z,43.59
2024-04-24T08:53:57.476Z,43.49
2024-04-24T08:54:57.455Z,43.91
2024-04-24T08:55:57.446Z,44.35
2024-04-24T08:56:57.465Z,44.98
2024-04-24T08:57:57.815Z,46.00
2024-04-24T08:58:57.438Z,46.21
2024-04-24T08:59:57.359Z,45.80
2024-04-24T09:00:57.353Z,46.00
2024-04-24T09:01:57.410Z,45.67
2024-04-24T09:02:57.472Z,46.00
2024-04-24T09:03:57.964Z,46.21
2024-04-24T09:04:57.484Z,46.74
2024-04-24T09:05:57.296Z,47.17
2024-04-24T09:06:59.511Z,47.60
2024-04-24T09:07:58.253Z,47.91
2024-04-24T09:08:57.737Z,47.81
2024-04-24T09:09:57.648Z,47.99
2024-04-24T09:10:57.350Z,48.30
2024-04-24T09:11:57.326Z,48.40
2024-04-24T09:12:57.247Z,48.50
2024-04-24T09:13:57.233Z,48.50
2024-04-24T09:14:57.587Z,48.50
2024-04-24T09:15:57.164Z,48.40
2024-04-24T09:16:57.371Z,48.30
2024-04-24T09:17:57.255Z,47.99
2024-04-24T09:18:57.315Z,47.78
2024-04-24T09:19:57.515Z,47.68
2024-04-24T09:20:57.100Z,47.30
2024-04-24T09:21:57.087Z,47.40
2024-04-24T09:22:57.131Z,47.50
2024-04-24T09:23:57.117Z,47.71
2024-04-24T09:24:57.802Z,47.71
2024-04-24T09:25:57.506Z,47.48
2024-04-24T09:26:57.056Z,46.97
2024-04-24T09:27:57.037Z,46.66
2024-04-24T09:28:57.065Z,46.94
2024-04-24T09:29:57.055Z,47.07
2024-04-24T09:30:57.386Z,47.15
2024-04-24T09:31:57.045Z,46.94
2024-04-24T09:32:57.109Z,46.23
2024-04-24T09:33:57.012Z,46.33
2024-04-24T09:34:57.023Z,45.20
2024-04-24T09:35:56.939Z,45.31
2024-04-24T09:36:57.381Z,45.51
2024-04-24T09:37:56.930Z,45.51
2024-04-24T09:38:56.855Z,45.59
2024-04-24T09:39:56.904Z,45.49
2024-04-24T09:40:56.934Z,45.49
2024-04-24T09:41:57.253Z,45.57
2024-04-24T09:42:56.854Z,45.90
2024-04-24T09:43:56.858Z,46.11
2024-04-24T09:44:56.862Z,46.23
2024-04-24T09:45:56.799Z,46.64
2024-04-24T09:46:56.857Z,46.53
2024-04-24T09:47:57.290Z,46.41
2024-04-24T09:48:56.977Z,46.21
2024-04-24T09:49:56.735Z,45.90
2024-04-24T09:50:56.736Z,45.80
2024-04-24T09:51:56.706Z,45.90
2024-04-24T09:52:57.163Z,46.11
2024-04-24T09:53:56.650Z,46.59
2024-04-24T09:54:56.662Z,46.90
2024-04-24T09:55:56.640Z,46.62
2024-04-24T09:56:56.667Z,46.92
2024-04-24T09:57:56.674Z,46.72
2024-04-24T09:58:57.057Z,46.70
2024-04-24T09:59:56.586Z,46.49
2024-04-24T10:00:56.635Z,46.08
2024-04-24T10:01:56.686Z,46.19
2024-04-24T10:02:56.584Z,46.29
2024-04-24T10:03:57.069Z,46.08
2024-04-24T10:04:56.556Z,45.88
2024-04-24T10:05:57.606Z,45.98
2024-04-24T10:06:56.578Z,45.37
2024-04-24T10:07:56.572Z,45.47
2024-04-24T10:08:56.624Z,45.47
2024-04-24T10:09:56.894Z,45.67
2024-04-24T10:10:56.492Z,45.88
2024-04-24T10:11:56.583Z,45.88
2024-04-24T10:12:56.457Z,45.88
2024-04-24T10:13:56.479Z,45.35
2024-04-24T10:14:56.468Z,45.76
2024-04-24T10:15:56.808Z,45.55
2024-04-24T10:16:56.460Z,45.65
2024-04-24T10:17:56.457Z,45.98
2024-04-24T10:18:56.569Z,45.55
2024-04-24T10:20:02.730Z,44.94
2024-04-24T10:20:59.449Z,44.92
2024-04-24T10:21:56.717Z,44.71
2024-04-24T10:22:56.379Z,44.71
2024-04-24T10:23:56.322Z,45.12
2024-04-24T10:24:56.323Z,45.02
2024-04-24T10:25:56.264Z,44.61
2024-04-24T10:26:56.287Z,44.69
2024-04-24T10:27:56.672Z,44.28
2024-04-24T10:28:56.312Z,44.87
2024-04-24T10:29:56.288Z,43.85
2024-04-24T10:30:56.176Z,43.96
2024-04-24T10:31:56.520Z,44.16
2024-04-24T10:32:56.444Z,44.06
2024-04-24T10:33:56.909Z,44.18
2024-04-24T10:34:56.303Z,44.79
2024-04-24T10:35:56.164Z,45.12
2024-04-24T10:36:56.205Z,45.32
2024-04-24T10:37:56.315Z,45.96
2024-04-24T10:38:56.517Z,45.73
2024-04-24T10:39:56.234Z,45.73
2024-04-24T10:40:56.103Z,45.84
2024-04-24T10:41:56.064Z,45.84
2024-04-24T10:42:56.260Z,45.94
2024-04-24T10:43:56.475Z,45.43
2024-04-24T10:44:56.048Z,45.12
2024-04-24T10:45:55.999Z,45.43
2024-04-24T10:46:56.046Z,45.63
2024-04-24T10:47:56.051Z,45.94
2024-04-24T10:48:56.004Z,46.26
2024-04-24T10:49:56.643Z,46.26
2024-04-24T10:50:58.168Z,46.57
2024-04-24T10:51:55.999Z,46.88
2024-04-24T10:52:56.047Z,46.57
2024-04-24T10:53:58.407Z,46.78
2024-04-24T10:54:55.888Z,46.67
2024-04-24T10:55:56.433Z,45.86
2024-04-24T10:56:55.878Z,46.47
2024-04-24T10:57:55.910Z,45.98
2024-04-24T10:58:55.889Z,45.65
2024-04-24T10:59:55.842Z,45.88
2024-04-24T11:00:55.807Z,46.08
2024-04-24T11:01:56.235Z,46.06
2024-04-24T11:02:59.383Z,46.06
2024-04-24T11:03:57.478Z,45.35
2024-04-24T11:04:55.801Z,45.25
2024-04-24T11:05:55.810Z,45.14
2024-04-24T11:06:55.792Z,45.14
2024-04-24T11:07:56.172Z,45.25
2024-04-24T11:08:55.680Z,45.04
2024-04-24T11:09:55.690Z,45.47
2024-04-24T11:10:55.774Z,45.47
2024-04-24T11:11:55.738Z,45.65
2024-04-24T11:12:55.667Z,45.65
2024-04-24T11:13:56.105Z,45.78
2024-04-24T11:14:55.655Z,45.47
2024-04-24T11:16:01.998Z,45.37
2024-04-24T11:16:57.295Z,45.80
2024-04-24T11:17:55.856Z,46.31
2024-04-24T11:18:55.683Z,46.62
2024-04-24T11:19:56.136Z,46.92
2024-04-24T11:20:55.571Z,47.03
2024-04-24T11:21:55.544Z,46.92
2024-04-24T11:22:55.555Z,46.82
2024-04-24T11:23:55.565Z,47.13
2024-04-24T11:24:55.552Z,46.92
2024-04-24T11:25:59.737Z,46.72
2024-04-24T11:26:55.445Z,46.82
2024-04-24T11:27:55.420Z,47.05
2024-04-24T11:28:55.479Z,47.45
2024-04-24T11:29:55.487Z,47.23
2024-04-24T11:30:55.931Z,46.90
2024-04-24T11:31:55.448Z,47.11
2024-04-24T11:32:55.502Z,47.19
2024-04-24T11:33:55.461Z,46.86
2024-04-24T11:34:55.453Z,46.12
2024-04-24T11:35:55.411Z,45.92
2024-04-24T11:36:55.765Z,45.69
2024-04-24T11:37:55.319Z,44.04
2024-04-24T11:38:55.286Z,43.73
2024-04-24T11:39:55.406Z,43.53
2024-04-24T11:40:55.356Z,43.73
2024-04-24T11:41:55.728Z,43.32
2024-04-24T11:42:55.354Z,42.92
2024-04-24T11:43:55.260Z,43.12
2024-04-24T11:44:55.252Z,43.23
2024-04-24T11:45:55.223Z,43.23
2024-04-24T11:46:55.648Z,43.30
2024-04-24T11:47:55.302Z,42.98
2024-04-24T11:48:55.244Z,42.45
2024-04-24T11:49:55.365Z,41.72
2024-04-24T11:50:55.224Z,40.58
2024-04-24T11:51:55.115Z,39.64
2024-04-24T11:52:55.726Z,38.18
2024-04-24T11:53:55.113Z,37.87
2024-04-24T11:54:55.154Z,37.95
2024-04-24T11:55:55.120Z,37.44
2024-04-24T11:56:55.071Z,36.85
2024-04-24T11:57:55.574Z,37.27
2024-04-24T11:58:55.161Z,38.41
2024-04-24T11:59:55.223Z,39.14
2024-04-24T12:00:55.063Z,39.87
2024-04-24T12:01:55.058Z,40.30
2024-04-24T12:02:55.487Z,40.64
2024-04-24T12:03:55.028Z,41.16
2024-04-24T12:04:55.051Z,41.80
2024-04-24T12:05:55.060Z,42.53
2024-04-24T12:06:54.935Z,42.83
2024-04-24T12:07:54.932Z,42.83
2024-04-24T12:08:55.368Z,42.83
2024-04-24T12:09:54.982Z,43.47
2024-04-24T12:10:54.893Z,44.10
2024-04-24T12:11:54.941Z,44.32
2024-04-24T12:12:54.881Z,44.43
2024-04-24T12:13:55.355Z,44.71
2024-04-24T12:14:54.838Z,44.10
2024-04-24T12:15:54.934Z,44.22
2024-04-24T12:16:54.832Z,44.02
2024-04-24T12:17:54.885Z,44.32
2024-04-24T12:18:55.204Z,44.51
2024-04-24T12:19:54.811Z,44.18
2024-04-24T12:20:54.786Z,44.28
2024-04-24T12:21:54.813Z,43.85
2024-04-24T12:22:54.792Z,43.44
2024-04-24T12:23:54.692Z,43.44
2024-04-24T12:24:55.134Z,43.44
2024-04-24T12:25:54.810Z,43.24
2024-04-24T12:26:54.667Z,43.37
2024-04-24T12:27:54.688Z,43.77
2024-04-24T12:28:54.679Z,44.20
2024-04-24T12:29:54.696Z,44.84
2024-04-24T12:30:56.434Z,45.47
2024-04-24T12:31:54.723Z,46.11
2024-04-24T12:32:54.791Z,46.31
2024-04-24T12:33:54.705Z,46.41
2024-04-24T12:34:54.640Z,47.03
2024-04-24T12:35:54.597Z,47.31
2024-04-24T12:36:54.994Z,47.41
2024-04-24T12:37:54.604Z,47.29
2024-04-24T12:38:54.527Z,46.98
2024-04-24T12:39:54.649Z,46.88
2024-04-24T12:40:54.533Z,46.67
2024-04-24T12:41:55.021Z,47.19
2024-04-24T12:42:54.512Z,46.98
2024-04-24T12:43:54.579Z,46.37
2024-04-24T12:44:54.433Z,46.37
2024-04-24T12:45:54.418Z,46.67
2024-04-24T12:46:54.574Z,46.82
2024-04-24T12:47:54.896Z,47.53
2024-04-24T12:48:54.640Z,47.86
2024-04-24T12:49:54.413Z,47.76
2024-04-24T12:50:54.396Z,48.19
2024-04-24T12:51:54.436Z,48.50
2024-04-24T12:52:54.791Z,48.40
2024-04-24T12:53:54.541Z,48.60
2024-04-24T12:54:54.301Z,48.50
2024-04-24T12:55:54.364Z,48.40
2024-04-24T12:56:54.322Z,48.30
2024-04-24T12:57:54.301Z,48.09
2024-04-24T12:58:54.723Z,48.19
2024-04-24T12:59:54.293Z,48.09